Terminal Aerodrome Forecast
Issued by NWS

Home | Current Version | Previous Version | Graphics & Text | Print | Product List | Glossary On
Versions: 1 2 3 4 5 6 7 8 9 10 11 12 13 14 15 16 17 18 19 20
000
FTUS43 KGRB 222051 AAA
TAFAUW
TAF AMD
KAUW 222051Z 2221/2318 22006KT P6SM BKN200
     FM222300 22006KT P6SM SCT070 BKN100
     FM230100 21005KT P6SM -SN SCT015 OVC080
      TEMPO 2301/2305 3SM -SHSN BKN015
     FM231000 24005KT P6SM SCT090=

USA.gov is the U.S. government's official web portal to all federal, state and local government web resources and services.